Miami, West Virginia
Current Conditions -  °F | °C
As of 7:54 PM on Tuesday 27 Jan 2015 (Local Time) from KCRW Reporting Station
Light Snow Light Snow  
Wind Chill: 16°   Ceiling: 2900
Heat Index: 23°   Visibility: 7mi
Dew Point: 15°   Wind: 6mph
Humidity: 72%   Direction: NA
Pressure: 30.13"   Gusts: NA
Location:  38.15°N, 81.45°W
Report Text: KCRW 280054Z VRB05KT 7SM -SN OVC029 M05/M09 A3013 RMK AO2 SLP216 P0000 T10501094
Loading
Personal Weather Stations






























Interactive Weather Map New forecast layout! Learn more

10-Day Weather Forecast

Advertisements
Track Severe Weather on mobile